createdAt,value
2018-05-11T00:00:34.813Z,16.10
2018-05-11T00:03:02.275Z,16.87
2018-05-11T00:05:29.705Z,15.53
2018-05-11T00:07:57.215Z,13.87
2018-05-11T00:10:24.615Z,17.73
2018-05-11T00:12:52.053Z,15.53
2018-05-11T00:15:19.526Z,21.07
2018-05-11T00:17:46.992Z,12.67
2018-05-11T00:20:14.401Z,13.73
2018-05-11T00:22:41.845Z,14.77
2018-05-11T00:25:10.714Z,14.82
2018-05-11T00:27:38.893Z,17.03
2018-05-11T00:30:07.076Z,15.47
2018-05-11T00:32:34.494Z,13.57
2018-05-11T00:35:01.951Z,20.73
2018-05-11T00:37:29.365Z,15.00
2018-05-11T00:39:56.877Z,26.57
2018-05-11T00:42:24.290Z,15.67
2018-05-11T00:44:51.707Z,16.70
2018-05-11T00:47:19.180Z,18.00
2018-05-11T00:49:46.601Z,13.83
2018-05-11T00:52:14.796Z,11.23
2018-05-11T00:54:42.249Z,15.03
2018-05-11T00:57:10.628Z,11.53
2018-05-11T00:59:38.027Z,13.03
2018-05-11T01:02:06.220Z,12.35
2018-05-11T01:04:34.410Z,12.07
2018-05-11T01:07:02.604Z,10.23
2018-05-11T01:09:30.801Z,16.17
2018-05-11T01:11:58.276Z,16.80
2018-05-11T01:14:25.697Z,17.40
2018-05-11T01:16:53.113Z,11.43
2018-05-11T01:19:20.520Z,17.53
2018-05-11T01:21:47.946Z,10.63
2018-05-11T01:24:15.351Z,13.97
2018-05-11T01:26:42.775Z,16.30
2018-05-11T01:29:11.793Z,15.38
2018-05-11T01:31:39.225Z,13.70
2018-05-11T01:34:06.720Z,12.97
2018-05-11T01:36:34.143Z,13.60
2018-05-11T01:39:01.561Z,13.40
2018-05-11T01:41:29.032Z,15.10
2018-05-11T01:43:56.442Z,13.30
2018-05-11T01:46:23.877Z,19.70
2018-05-11T01:48:51.360Z,15.13
2018-05-11T01:51:19.617Z,17.83
2018-05-11T01:53:47.033Z,15.80
2018-05-11T01:56:14.451Z,14.20
2018-05-11T01:58:42.643Z,13.80
2018-05-11T02:01:10.213Z,17.17
2018-05-11T02:03:37.633Z,21.27
2018-05-11T02:06:05.060Z,21.70
2018-05-11T02:08:32.523Z,15.43
2018-05-11T02:10:59.931Z,18.20
2018-05-11T02:13:27.373Z,16.37
2018-05-11T02:15:54.792Z,17.27
2018-05-11T02:18:23.013Z,18.67
2018-05-11T02:20:50.423Z,22.17
2018-05-11T02:23:17.853Z,20.07
2018-05-11T02:25:45.256Z,17.33
2018-05-11T02:28:12.938Z,19.07
2018-05-11T02:30:40.353Z,18.40
2018-05-11T02:33:07.779Z,17.23
2018-05-11T02:35:35.184Z,22.60
2018-05-11T02:38:02.606Z,18.77
2018-05-11T02:40:30.025Z,19.80
2018-05-11T02:42:57.481Z,22.87
2018-05-11T02:45:24.873Z,20.40
2018-05-11T02:47:52.333Z,27.63
2018-05-11T02:50:19.807Z,24.20
2018-05-11T02:52:47.269Z,20.60
2018-05-11T02:55:14.699Z,22.77
2018-05-11T02:57:43.240Z,19.50
2018-05-11T03:00:10.659Z,23.73
2018-05-11T03:02:38.083Z,22.03
2018-05-11T03:05:05.484Z,22.30
2018-05-11T03:07:32.919Z,23.23
2018-05-11T03:10:00.332Z,23.80
2018-05-11T03:12:27.845Z,16.63
2018-05-11T03:14:55.267Z,23.70
2018-05-11T03:17:22.723Z,23.30
2018-05-11T03:19:50.129Z,17.47
2018-05-11T03:22:18.316Z,24.00
2018-05-11T03:24:46.500Z,22.13
2018-05-11T03:27:14.684Z,22.77
2018-05-11T03:29:43.839Z,19.80
2018-05-11T03:32:11.270Z,23.17
2018-05-11T03:34:38.680Z,21.20
2018-05-11T03:37:06.117Z,20.87
2018-05-11T03:39:33.551Z,25.83
2018-05-11T03:42:00.956Z,18.40
2018-05-11T03:44:28.428Z,22.10
2018-05-11T03:46:55.889Z,17.50
2018-05-11T03:49:23.319Z,18.77
2018-05-11T03:51:50.730Z,22.80
2018-05-11T03:54:18.185Z,20.03
2018-05-11T03:56:45.578Z,29.77
2018-05-11T03:59:14.249Z,24.83
2018-05-11T04:01:53.505Z,21.57
2018-05-11T04:04:32.972Z,26.77
2018-05-11T04:07:12.365Z,22.60
2018-05-11T04:09:39.802Z,27.50
2018-05-11T04:12:07.450Z,26.77
2018-05-11T04:14:35.634Z,29.07
2018-05-11T04:17:03.036Z,28.60
2018-05-11T04:19:30.450Z,21.77
2018-05-11T04:21:58.668Z,22.33
2018-05-11T04:24:26.081Z,27.50
2018-05-11T04:26:53.593Z,25.03
2018-05-11T04:29:21.019Z,25.43
2018-05-11T04:31:48.453Z,22.63
2018-05-11T04:34:15.957Z,22.83
2018-05-11T04:36:44.301Z,28.20
2018-05-11T04:39:11.734Z,26.40
2018-05-11T04:41:39.136Z,22.70
2018-05-11T04:44:06.561Z,24.80
2018-05-11T04:46:33.975Z,21.30
2018-05-11T04:49:01.395Z,26.30
2018-05-11T04:51:28.834Z,21.87
2018-05-11T04:53:56.277Z,23.60
2018-05-11T04:56:23.676Z,38.67
2018-05-11T04:58:51.099Z,22.33
2018-05-11T05:01:18.577Z,30.10
2018-05-11T05:03:45.989Z,25.90
2018-05-11T05:06:13.417Z,18.37
2018-05-11T05:08:40.880Z,21.17
2018-05-11T05:11:08.341Z,22.57
2018-05-11T05:13:35.776Z,21.20
2018-05-11T05:16:03.202Z,26.80
2018-05-11T05:18:30.612Z,20.07
2018-05-11T05:20:58.052Z,24.53
2018-05-11T05:23:25.461Z,20.57
2018-05-11T05:25:53.679Z,19.23
2018-05-11T05:28:21.144Z,30.30
2018-05-11T05:30:49.304Z,25.23
2018-05-11T05:33:17.522Z,24.70
2018-05-11T05:35:45.984Z,25.52
2018-05-11T05:38:15.124Z,16.60
2018-05-11T05:40:42.593Z,20.60
2018-05-11T05:43:10.016Z,18.00
2018-05-11T05:45:38.201Z,20.07
2018-05-11T05:48:05.607Z,20.20
2018-05-11T05:50:33.025Z,16.63
2018-05-11T05:53:00.540Z,15.73
2018-05-11T05:55:28.016Z,14.03
2018-05-11T05:57:56.188Z,23.60
2018-05-11T06:00:23.602Z,18.50
2018-05-11T06:02:51.024Z,16.53
2018-05-11T06:05:18.449Z,21.03
2018-05-11T06:07:45.868Z,22.07
2018-05-11T06:10:13.295Z,21.93
2018-05-11T06:12:40.820Z,16.80
2018-05-11T06:15:08.272Z,16.60
2018-05-11T06:17:35.727Z,16.50
2018-05-11T06:20:04.617Z,18.00
2018-05-11T06:22:32.116Z,21.80
2018-05-11T06:24:59.528Z,16.93
2018-05-11T06:27:26.949Z,14.50
2018-05-11T06:29:54.422Z,17.10
2018-05-11T06:32:21.840Z,20.37
2018-05-11T06:34:49.257Z,19.83
2018-05-11T06:37:16.676Z,19.67
2018-05-11T06:39:45.276Z,16.50
2018-05-11T06:42:12.699Z,18.00
2018-05-11T06:44:40.130Z,17.57
2018-05-11T06:47:08.324Z,16.07
2018-05-11T06:49:36.505Z,12.83
2018-05-11T06:52:04.714Z,22.70
2018-05-11T06:54:32.129Z,18.43
2018-05-11T06:56:59.549Z,18.03
2018-05-11T06:59:26.976Z,25.70
2018-05-11T07:01:54.380Z,19.00
2018-05-11T07:04:21.799Z,13.10
2018-05-11T07:06:49.222Z,16.20
2018-05-11T07:09:17.479Z,19.15
2018-05-11T07:11:46.627Z,16.00
2018-05-11T07:14:14.037Z,16.67
2018-05-11T07:16:41.443Z,15.10
2018-05-11T07:19:08.881Z,17.80
2018-05-11T07:21:37.054Z,16.17
2018-05-11T07:24:04.462Z,16.90
2018-05-11T07:26:32.640Z,20.87
2018-05-11T07:29:00.821Z,15.47
2018-05-11T07:31:29.007Z,20.10
2018-05-11T07:33:56.441Z,15.50
2018-05-11T07:36:23.868Z,20.90
2018-05-11T07:38:51.277Z,15.80
2018-05-11T07:41:18.684Z,14.67
2018-05-11T07:43:47.781Z,18.57
2018-05-11T07:46:15.974Z,13.23
2018-05-11T07:48:44.186Z,14.20
2018-05-11T07:51:11.668Z,14.00
2018-05-11T07:53:39.068Z,17.27
2018-05-11T07:56:06.588Z,16.07
2018-05-11T07:58:33.994Z,16.83
2018-05-11T08:01:01.401Z,17.43
2018-05-11T08:03:29.589Z,13.47
2018-05-11T08:05:57.772Z,19.07
2018-05-11T08:08:26.093Z,15.20
2018-05-11T08:10:54.277Z,15.67
2018-05-11T08:13:22.435Z,18.93
2018-05-11T08:15:50.612Z,23.47
2018-05-11T08:18:18.808Z,17.37
2018-05-11T08:20:47.912Z,20.80
2018-05-11T08:23:16.130Z,11.73
2018-05-11T08:25:44.335Z,16.27
2018-05-11T08:28:11.779Z,18.30
2018-05-11T08:30:39.352Z,14.13
2018-05-11T08:33:06.760Z,16.10
2018-05-11T08:35:34.176Z,13.30
2018-05-11T08:38:02.361Z,13.50
2018-05-11T08:40:30.566Z,13.43
2018-05-11T08:42:57.972Z,11.57
2018-05-11T08:45:25.381Z,11.57
2018-05-11T08:47:53.553Z,16.70
2018-05-11T08:50:21.776Z,12.90
2018-05-11T08:52:49.939Z,16.90
2018-05-11T08:55:19.040Z,17.33
2018-05-11T08:57:46.510Z,18.17
2018-05-11T09:00:14.017Z,15.30
2018-05-11T09:02:41.505Z,23.57
2018-05-11T09:05:08.927Z,14.70
2018-05-11T09:07:37.103Z,21.03
2018-05-11T09:10:05.281Z,22.63
2018-05-11T09:12:33.453Z,18.00
2018-05-11T09:15:00.865Z,18.00
2018-05-11T09:17:28.272Z,25.27
2018-05-11T09:19:55.691Z,17.20
2018-05-11T09:22:23.882Z,14.23
2018-05-11T09:24:51.298Z,12.13
2018-05-11T09:27:20.024Z,14.38
2018-05-11T09:29:49.166Z,13.90
2018-05-11T09:32:16.572Z,17.47
2018-05-11T09:34:44.004Z,10.87
2018-05-11T09:37:11.421Z,19.97
2018-05-11T09:39:38.861Z,18.80
2018-05-11T09:42:06.248Z,16.20
2018-05-11T09:44:35.211Z,10.37
2018-05-11T09:47:03.373Z,12.93
2018-05-11T09:49:31.713Z,11.70
2018-05-11T09:51:59.093Z,13.97
2018-05-11T09:54:26.511Z,13.43
2018-05-11T09:56:53.925Z,9.27
2018-05-11T09:59:21.460Z,18.87
2018-05-11T10:01:50.578Z,12.27
2018-05-11T10:04:18.749Z,14.13
2018-05-11T10:06:47.039Z,9.20
2018-05-11T10:09:15.241Z,14.03
2018-05-11T10:11:42.700Z,13.00
2018-05-11T10:14:10.097Z,12.40
2018-05-11T10:16:37.517Z,15.43
2018-05-11T10:19:04.937Z,11.07
2018-05-11T10:21:32.354Z,11.95
2018-05-11T10:24:00.547Z,11.17
2018-05-11T10:26:27.961Z,10.97
2018-05-11T10:28:55.384Z,11.90
2018-05-11T10:31:23.562Z,14.40
2018-05-11T10:33:51.737Z,15.87
2018-05-11T10:36:20.839Z,13.00
2018-05-11T10:38:49.032Z,15.87
2018-05-11T10:41:17.248Z,10.93
2018-05-11T10:43:44.681Z,12.17
2018-05-11T10:46:12.103Z,12.93
2018-05-11T10:48:39.609Z,13.47
2018-05-11T10:51:06.962Z,14.93
2018-05-11T10:53:34.380Z,19.67
2018-05-11T10:56:01.789Z,18.20
2018-05-11T10:58:29.217Z,16.93
2018-05-11T11:00:56.687Z,18.03
2018-05-11T11:03:24.093Z,17.80
2018-05-11T11:05:51.617Z,12.70
2018-05-11T11:08:19.029Z,12.50
2018-05-11T11:10:46.454Z,12.97
2018-05-11T11:13:13.876Z,12.03
2018-05-11T11:15:42.061Z,15.17
2018-05-11T11:18:09.476Z,11.03
2018-05-11T11:20:36.911Z,12.00
2018-05-11T11:23:04.316Z,14.17
2018-05-11T11:25:31.780Z,11.00
2018-05-11T11:27:59.970Z,13.60
2018-05-11T11:30:28.130Z,10.67
2018-05-11T11:32:56.304Z,11.70
2018-05-11T11:35:24.485Z,13.50
2018-05-11T11:37:52.098Z,14.10
2018-05-11T11:40:21.195Z,14.37
2018-05-11T11:42:48.608Z,12.77
2018-05-11T11:45:16.049Z,17.93
2018-05-11T11:47:43.517Z,20.50
2018-05-11T11:50:10.933Z,15.80
2018-05-11T11:52:38.453Z,17.00
2018-05-11T11:55:06.634Z,14.43
2018-05-11T11:57:34.204Z,14.00
2018-05-11T12:00:01.672Z,13.07
2018-05-11T12:02:29.076Z,12.30
2018-05-11T12:04:56.489Z,12.43
2018-05-11T12:07:24.673Z,13.53
2018-05-11T12:09:52.865Z,15.57
2018-05-11T12:12:20.280Z,16.30
2018-05-11T12:14:47.692Z,12.53
2018-05-11T12:17:15.925Z,10.77
2018-05-11T12:19:43.355Z,11.17
2018-05-11T12:22:11.535Z,14.40
2018-05-11T12:24:39.718Z,11.93
2018-05-11T12:27:07.896Z,14.47
2018-05-11T12:29:36.108Z,12.50
2018-05-11T12:32:03.532Z,10.37
2018-05-11T12:34:31.051Z,15.17
2018-05-11T12:36:58.542Z,12.80
2018-05-11T12:39:25.940Z,11.80
2018-05-11T12:41:53.358Z,13.37
2018-05-11T12:44:20.764Z,21.10
2018-05-11T12:46:48.187Z,15.03
2018-05-11T12:49:15.627Z,12.73
2018-05-11T12:51:43.136Z,10.43
2018-05-11T12:54:10.598Z,14.50
2018-05-11T12:56:38.017Z,12.73
2018-05-11T12:59:06.199Z,11.97
2018-05-11T13:01:33.652Z,12.73
2018-05-11T13:04:01.090Z,14.70
2018-05-11T13:06:28.506Z,13.50
2018-05-11T13:08:55.931Z,17.60
2018-05-11T13:11:23.363Z,15.43
2018-05-11T13:13:52.501Z,13.17
2018-05-11T13:16:19.917Z,17.17
2018-05-11T13:18:47.345Z,18.67
2018-05-11T13:21:14.764Z,17.23
2018-05-11T13:23:42.220Z,14.07
2018-05-11T13:26:09.858Z,15.50
2018-05-11T13:28:38.017Z,14.20
2018-05-11T13:31:06.200Z,10.13
2018-05-11T13:33:34.405Z,9.53
2018-05-11T13:36:01.823Z,11.80
2018-05-11T13:38:29.245Z,13.80
2018-05-11T13:40:56.645Z,13.90
2018-05-11T13:43:24.071Z,16.23
2018-05-11T13:45:51.553Z,13.10
2018-05-11T13:48:19.052Z,13.37
2018-05-11T13:50:47.172Z,9.43
2018-05-11T13:53:15.392Z,18.73
2018-05-11T13:55:42.820Z,11.73
2018-05-11T13:58:10.468Z,13.27
2018-05-11T14:00:37.894Z,22.53
2018-05-11T14:03:05.303Z,13.40
2018-05-11T14:05:32.725Z,20.07
2018-05-11T14:08:00.207Z,11.97
2018-05-11T14:10:27.616Z,8.30
2018-05-11T14:12:55.040Z,17.13
2018-05-11T14:15:23.933Z,14.50
2018-05-11T14:17:53.053Z,14.30
2018-05-11T14:20:20.520Z,11.40
2018-05-11T14:22:48.198Z,13.53
2018-05-11T14:25:16.357Z,16.73
2018-05-11T14:27:44.556Z,15.43
2018-05-11T14:30:12.728Z,15.40
2018-05-11T14:32:40.952Z,10.90
2018-05-11T14:35:08.405Z,13.40
2018-05-11T14:37:35.812Z,16.33
2018-05-11T14:40:03.238Z,11.80
2018-05-11T14:42:30.665Z,12.03
2018-05-11T14:44:58.194Z,11.77
2018-05-11T14:47:25.848Z,14.80
2018-05-11T14:49:54.444Z,22.10
2018-05-11T14:52:21.987Z,11.50
2018-05-11T14:54:49.405Z,10.30
2018-05-11T14:57:16.856Z,11.87
2018-05-11T14:59:44.297Z,14.73
2018-05-11T15:02:11.706Z,14.17
2018-05-11T15:04:39.128Z,15.20
2018-05-11T15:07:06.540Z,13.20
2018-05-11T15:09:33.950Z,12.20
2018-05-11T15:12:02.276Z,12.80
2018-05-11T15:14:29.760Z,13.70
2018-05-11T15:16:57.950Z,12.97
2018-05-11T15:19:25.348Z,15.53
2018-05-11T15:21:52.761Z,10.97
2018-05-11T15:24:20.169Z,13.23
2018-05-11T15:26:47.580Z,11.00
2018-05-11T15:29:15.089Z,17.53
2018-05-11T15:31:42.575Z,17.37
2018-05-11T15:34:09.986Z,19.20
2018-05-11T15:36:37.392Z,13.97
2018-05-11T15:39:05.476Z,15.17
2018-05-11T15:41:32.880Z,13.33
2018-05-11T15:44:00.294Z,22.60
2018-05-11T15:46:27.774Z,19.57
2018-05-11T15:48:55.190Z,16.73
2018-05-11T15:51:22.651Z,15.57
2018-05-11T15:53:50.140Z,16.67
2018-05-11T15:56:17.651Z,18.80
2018-05-11T15:58:45.147Z,10.23
2018-05-11T16:01:12.826Z,14.23
2018-05-11T16:03:40.408Z,15.37
2018-05-11T16:06:07.894Z,12.60
2018-05-11T16:08:35.306Z,12.47
2018-05-11T16:11:02.697Z,13.60
2018-05-11T16:13:30.162Z,15.93
2018-05-11T16:15:57.614Z,15.33
2018-05-11T16:18:25.134Z,15.10
2018-05-11T16:20:52.568Z,14.00
2018-05-11T16:23:20.088Z,14.43
2018-05-11T16:25:48.296Z,15.73
2018-05-11T16:28:15.851Z,13.73
2018-05-11T16:30:43.253Z,12.53
2018-05-11T16:33:10.668Z,19.77
2018-05-11T16:35:38.089Z,8.60
2018-05-11T16:38:05.509Z,15.33
2018-05-11T16:40:32.968Z,15.90
2018-05-11T16:43:00.341Z,18.97
2018-05-11T16:45:27.852Z,15.67
2018-05-11T16:47:56.320Z,18.40
2018-05-11T16:50:25.428Z,18.60
2018-05-11T16:52:53.604Z,14.20
2018-05-11T16:55:21.829Z,15.30
2018-05-11T16:57:49.248Z,16.40
2018-05-11T17:00:16.680Z,15.20
2018-05-11T17:02:44.113Z,13.20
2018-05-11T17:05:11.611Z,11.97
2018-05-11T17:07:39.067Z,16.33
2018-05-11T17:10:06.537Z,14.60
2018-05-11T17:12:34.696Z,17.03
2018-05-11T17:15:02.902Z,16.13
2018-05-11T17:17:30.329Z,28.17
2018-05-11T17:19:57.756Z,21.80
2018-05-11T17:22:26.092Z,18.20
2018-05-11T17:24:53.608Z,17.43
2018-05-11T17:27:21.020Z,17.93
2018-05-11T17:29:49.944Z,18.43
2018-05-11T17:32:18.165Z,16.70
2018-05-11T17:34:46.388Z,20.23
2018-05-11T17:37:13.792Z,17.27
2018-05-11T17:39:42.021Z,22.87
2018-05-11T17:42:09.417Z,16.30
2018-05-11T17:44:36.833Z,17.73
2018-05-11T17:47:04.255Z,26.73
2018-05-11T17:49:31.688Z,19.80
2018-05-11T17:51:59.117Z,19.90
2018-05-11T17:54:27.307Z,23.83
2018-05-11T17:56:55.567Z,33.63
2018-05-11T17:59:23.680Z,31.63
2018-05-11T18:01:51.872Z,23.93
2018-05-11T18:04:19.296Z,25.33
2018-05-11T18:06:46.712Z,23.73
2018-05-11T18:09:14.205Z,22.00
2018-05-11T18:11:41.618Z,24.93
2018-05-11T18:14:09.028Z,22.40
2018-05-11T18:16:36.494Z,30.53
2018-05-11T18:19:03.931Z,22.67
2018-05-11T18:21:31.334Z,18.60
2018-05-11T18:23:58.795Z,26.33
2018-05-11T18:26:27.092Z,23.80
2018-05-11T18:28:54.524Z,28.93
2018-05-11T18:31:21.949Z,19.20
2018-05-11T18:33:49.369Z,26.03
2018-05-11T18:36:17.554Z,22.80
2018-05-11T18:38:45.738Z,29.53
2018-05-11T18:41:13.917Z,25.70
2018-05-11T18:43:42.248Z,25.90
2018-05-11T18:46:09.654Z,28.83
2018-05-11T18:48:37.079Z,28.33
2018-05-11T18:51:04.503Z,25.70
2018-05-11T18:53:33.672Z,25.60
2018-05-11T18:56:00.889Z,26.30
2018-05-11T18:58:28.321Z,24.27
2018-05-11T19:00:55.756Z,22.55
2018-05-11T19:03:23.168Z,28.23
2018-05-11T19:05:50.709Z,29.30
2018-05-11T19:08:18.138Z,25.67
2018-05-11T19:10:45.541Z,22.13
2018-05-11T19:13:13.009Z,22.07
2018-05-11T19:15:40.445Z,20.47
2018-05-11T19:18:08.642Z,22.00
2018-05-11T19:20:36.073Z,18.87
2018-05-11T19:23:03.465Z,20.20
2018-05-11T19:25:31.654Z,22.60
2018-05-11T19:27:59.838Z,20.33
2018-05-11T19:30:28.951Z,19.83
2018-05-11T19:32:58.048Z,24.33
2018-05-11T19:35:26.240Z,21.63
2018-05-11T19:37:54.434Z,19.03
2018-05-11T19:40:22.623Z,20.90
2018-05-11T19:42:50.052Z,26.30
2018-05-11T19:45:17.967Z,24.23
2018-05-11T19:47:45.422Z,25.80
2018-05-11T19:50:12.840Z,25.00
2018-05-11T19:52:40.285Z,23.10
2018-05-11T19:55:07.752Z,22.73
2018-05-11T19:57:35.945Z,23.13
2018-05-11T20:00:03.364Z,23.27
2018-05-11T20:02:30.772Z,23.67
2018-05-11T20:04:59.576Z,24.42
2018-05-11T20:07:26.977Z,27.40
2018-05-11T20:09:54.420Z,33.63
2018-05-11T20:12:21.924Z,24.70
2018-05-11T20:14:49.409Z,25.60
2018-05-11T20:17:16.821Z,25.77
2018-05-11T20:19:44.290Z,23.30
2018-05-11T20:22:11.817Z,31.43
2018-05-11T20:24:39.236Z,32.13
2018-05-11T20:27:06.694Z,31.13
2018-05-11T20:29:34.121Z,27.90
2018-05-11T20:32:01.548Z,25.47
2018-05-11T20:34:29.198Z,34.10
2018-05-11T20:36:56.771Z,29.53
2018-05-11T20:39:24.190Z,27.03
2018-05-11T20:41:51.621Z,26.47
2018-05-11T20:44:19.054Z,26.97
2018-05-11T20:46:47.234Z,25.73
2018-05-11T20:49:15.454Z,26.03
2018-05-11T20:51:42.933Z,29.67
2018-05-11T20:54:10.349Z,25.07
2018-05-11T20:56:37.762Z,24.00
2018-05-11T20:59:05.202Z,26.17
2018-05-11T21:01:33.380Z,22.53
2018-05-11T21:04:01.560Z,29.27
2018-05-11T21:06:29.804Z,25.55
2018-05-11T21:08:57.255Z,22.23
2018-05-11T21:11:25.409Z,23.50
2018-05-11T21:13:53.600Z,25.17
2018-05-11T21:16:21.813Z,27.20
2018-05-11T21:18:49.285Z,25.13
2018-05-11T21:21:16.720Z,25.00
2018-05-11T21:23:44.230Z,26.43
2018-05-11T21:26:11.688Z,24.33
2018-05-11T21:28:39.165Z,23.30
2018-05-11T21:31:06.626Z,23.60
2018-05-11T21:33:34.116Z,22.93
2018-05-11T21:36:01.517Z,30.37
2018-05-11T21:38:29.049Z,23.77
2018-05-11T21:40:56.582Z,27.43
2018-05-11T21:43:23.908Z,19.70
2018-05-11T21:45:51.360Z,23.50
2018-05-11T21:48:18.783Z,19.47
2018-05-11T21:50:46.972Z,24.63
2018-05-11T21:53:15.207Z,25.87
2018-05-11T21:55:42.614Z,30.63
2018-05-11T21:58:10.082Z,22.10
2018-05-11T22:00:37.589Z,26.53
2018-05-11T22:03:05.748Z,26.50
2018-05-11T22:05:33.925Z,31.93
2018-05-11T22:08:02.100Z,29.40
2018-05-11T22:10:29.525Z,21.73
2018-05-11T22:12:56.940Z,27.07
2018-05-11T22:15:24.364Z,22.00
2018-05-11T22:17:51.793Z,21.80
2018-05-11T22:20:19.997Z,27.17
2018-05-11T22:22:47.425Z,29.80
2018-05-11T22:25:14.830Z,24.30
2018-05-11T22:27:42.261Z,30.60
2018-05-11T22:30:09.792Z,29.53
2018-05-11T22:32:37.179Z,29.30
2018-05-11T22:35:04.601Z,30.50
2018-05-11T22:37:32.026Z,36.67
2018-05-11T22:39:59.545Z,29.17
2018-05-11T22:42:26.967Z,26.00
2018-05-11T22:44:54.385Z,29.80
2018-05-11T22:47:21.807Z,35.87
2018-05-11T22:49:49.215Z,37.07
2018-05-11T22:52:16.632Z,29.80
2018-05-11T22:54:44.058Z,28.73
2018-05-11T22:57:11.549Z,29.23
2018-05-11T22:59:38.969Z,27.13
2018-05-11T23:02:07.194Z,29.40
2018-05-11T23:04:34.653Z,34.17
2018-05-11T23:07:02.068Z,30.17
2018-05-11T23:09:29.499Z,32.27
2018-05-11T23:11:57.068Z,30.00
2018-05-11T23:14:24.492Z,35.90
2018-05-11T23:16:52.721Z,28.60
2018-05-11T23:19:20.137Z,28.93
2018-05-11T23:21:47.561Z,27.50
2018-05-11T23:24:15.005Z,31.13
2018-05-11T23:26:43.197Z,27.20
2018-05-11T23:29:10.636Z,32.70
2018-05-11T23:31:38.856Z,27.40
2018-05-11T23:34:06.273Z,34.60
2018-05-11T23:36:33.713Z,33.00
2018-05-11T23:39:01.166Z,30.40
2018-05-11T23:41:28.629Z,27.53
2018-05-11T23:43:56.044Z,31.23
2018-05-11T23:46:23.577Z,31.07
2018-05-11T23:48:51.015Z,28.97
2018-05-11T23:51:19.191Z,30.33
2018-05-11T23:53:46.616Z,37.10
2018-05-11T23:56:14.040Z,31.77
2018-05-11T23:58:42.231Z,34.97
